CFG29W GCLP-EDDH
Flight info
| Callsign | CFG29W |
|---|---|
| Flight time | N/A |
| Altitude | 38000 |
| Route | VASTO DCT BAROK DCT BARDI N873 DELOG DCT PEXOD DCT DIDIG UP87 MOKOR UN873 BAZOS DCT BELDI DCT VEKIN DCT ADUTO DCT VICOT DCT PABCO M105 RIBSO RIBSO7A |
| Aircraft | A339/H-SADE1E2E3GHIJ3J5M1P2RWXY/LB2D1 |
Departure
| Time | N/A |
|---|---|
| Airport | Gran Canaria Airport (GCLP) |
Arrival
| Time | 2026-05-07 14:45 |
|---|---|
| Airport | Hamburg Helmut Schmidt Airport (EDDH) |
| Time | Latitude | Longitude | Altitude | Speed | Heading |
|---|---|---|---|---|---|
| 2026-05-07 14:21 | 53.13809 | 7.45432 | 38055 ft | 482 kts | 48° |
| 2026-05-07 14:22 | 53.18308 | 7.53729 | 38045 ft | 482 kts | 48° |
| 2026-05-07 14:22 | 53.22066 | 7.62877 | 37481 ft | 475 kts | 64° |
| 2026-05-07 14:22 | 53.23297 | 7.67882 | 36663 ft | 472 kts | 72° |
| 2026-05-07 14:23 | 53.24243 | 7.73121 | 35731 ft | 471 kts | 73° |
| 2026-05-07 14:23 | 53.25210 | 7.78315 | 34811 ft | 467 kts | 72° |
| 2026-05-07 14:23 | 53.26190 | 7.83465 | 33827 ft | 464 kts | 72° |
| 2026-05-07 14:23 | 53.27174 | 7.88599 | 32615 ft | 468 kts | 72° |
| 2026-05-07 14:24 | 53.28168 | 7.93801 | 31527 ft | 472 kts | 72° |
| 2026-05-07 14:24 | 53.29163 | 7.99030 | 30673 ft | 472 kts | 72° |
| 2026-05-07 14:24 | 53.30150 | 8.04244 | 29986 ft | 468 kts | 72° |
| 2026-05-07 14:24 | 53.31109 | 8.09334 | 29301 ft | 463 kts | 72° |
| 2026-05-07 14:25 | 53.32067 | 8.14436 | 28633 ft | 458 kts | 72° |
| 2026-05-07 14:25 | 53.33079 | 8.19449 | 27941 ft | 453 kts | 69° |
| 2026-05-07 14:25 | 53.34220 | 8.24333 | 27236 ft | 449 kts | 69° |
| 2026-05-07 14:25 | 53.35350 | 8.29183 | 26583 ft | 445 kts | 69° |
| 2026-05-07 14:26 | 53.36462 | 8.33984 | 25921 ft | 441 kts | 69° |
| 2026-05-07 14:26 | 53.37560 | 8.38756 | 25268 ft | 437 kts | 69° |
| 2026-05-07 14:26 | 53.38435 | 8.43606 | 24597 ft | 434 kts | 79° |
| 2026-05-07 14:26 | 53.38670 | 8.48535 | 23984 ft | 429 kts | 92° |
| 2026-05-07 14:27 | 53.38507 | 8.53499 | 23284 ft | 426 kts | 94° |
| 2026-05-07 14:27 | 53.38330 | 8.58425 | 22606 ft | 421 kts | 94° |
| 2026-05-07 14:27 | 53.38154 | 8.63283 | 21876 ft | 414 kts | 94° |
| 2026-05-07 14:27 | 53.37982 | 8.68063 | 20853 ft | 408 kts | 94° |
| 2026-05-07 14:28 | 53.37813 | 8.72772 | 19877 ft | 402 kts | 94° |
| 2026-05-07 14:28 | 53.37644 | 8.77417 | 18923 ft | 396 kts | 94° |
| 2026-05-07 14:28 | 53.37477 | 8.81982 | 17940 ft | 390 kts | 93° |
| 2026-05-07 14:28 | 53.37311 | 8.86481 | 16894 ft | 384 kts | 94° |
| 2026-05-07 14:29 | 53.37148 | 8.90901 | 15880 ft | 377 kts | 94° |
| 2026-05-07 14:29 | 53.36988 | 8.95188 | 14925 ft | 371 kts | 94° |
| 2026-05-07 14:29 | 53.36866 | 8.99468 | 13935 ft | 364 kts | 89° |
| 2026-05-07 14:29 | 53.37347 | 9.03593 | 12882 ft | 359 kts | 69° |
| 2026-05-07 14:30 | 53.38587 | 9.07149 | 11867 ft | 352 kts | 50° |
| 2026-05-07 14:30 | 53.40435 | 9.09748 | 10859 ft | 346 kts | 30° |
| 2026-05-07 14:30 | 53.42668 | 9.11052 | 10122 ft | 335 kts | 7° |
| 2026-05-07 14:30 | 53.44918 | 9.10829 | 9901 ft | 317 kts | 345° |
| 2026-05-07 14:31 | 53.46830 | 9.09272 | 9718 ft | 298 kts | 322° |
| 2026-05-07 14:31 | 53.48145 | 9.06726 | 9353 ft | 286 kts | 299° |
| 2026-05-07 14:31 | 53.48724 | 9.03615 | 8754 ft | 284 kts | 275° |
| 2026-05-07 14:31 | 53.48481 | 9.00348 | 8123 ft | 284 kts | 249° |
| 2026-05-07 14:32 | 53.47439 | 8.97576 | 7505 ft | 282 kts | 223° |
| 2026-05-07 14:32 | 53.45814 | 8.95838 | 6880 ft | 278 kts | 197° |
| 2026-05-07 14:32 | 53.43930 | 8.95472 | 6342 ft | 270 kts | 170° |
| 2026-05-07 14:32 | 53.42202 | 8.96509 | 5698 ft | 264 kts | 143° |
| 2026-05-07 14:33 | 53.41005 | 8.98725 | 5298 ft | 250 kts | 114° |
| 2026-05-07 14:33 | 53.40459 | 9.01481 | 5213 ft | 257 kts | 101° |
| 2026-05-07 14:33 | 53.40140 | 9.04426 | 5100 ft | 255 kts | 97° |
| 2026-05-07 14:33 | 53.39863 | 9.07312 | 4995 ft | 253 kts | 98° |
| 2026-05-07 14:34 | 53.39549 | 9.10200 | 4681 ft | 250 kts | 99° |
| 2026-05-07 14:34 | 53.39201 | 9.13035 | 4341 ft | 245 kts | 100° |
| 2026-05-07 14:34 | 53.38826 | 9.15888 | 4224 ft | 253 kts | 101° |
| 2026-05-07 14:34 | 53.38434 | 9.18760 | 4125 ft | 253 kts | 102° |
| 2026-05-07 14:35 | 53.38037 | 9.21619 | 4006 ft | 251 kts | 101° |
| 2026-05-07 14:35 | 53.37638 | 9.24474 | 4001 ft | 252 kts | 102° |
| 2026-05-07 14:35 | 53.37243 | 9.27332 | 3996 ft | 251 kts | 101° |
| 2026-05-07 14:35 | 53.36857 | 9.30148 | 4011 ft | 253 kts | 102° |
| 2026-05-07 14:36 | 53.36467 | 9.33016 | 3992 ft | 252 kts | 101° |
| 2026-05-07 14:36 | 53.36079 | 9.35886 | 4010 ft | 253 kts | 101° |
| 2026-05-07 14:36 | 53.35690 | 9.38757 | 3999 ft | 253 kts | 102° |
| 2026-05-07 14:36 | 53.35384 | 9.41644 | 4008 ft | 252 kts | 90° |
| 2026-05-07 14:37 | 53.35809 | 9.44440 | 4002 ft | 251 kts | 60° |
| 2026-05-07 14:37 | 53.38031 | 9.48964 | 4001 ft | 252 kts | 50° |
| 2026-05-07 14:37 | 53.39183 | 9.51184 | 4004 ft | 252 kts | 50° |
| 2026-05-07 14:38 | 53.40326 | 9.53409 | 4001 ft | 251 kts | 50° |
| 2026-05-07 14:38 | 53.41293 | 9.55310 | 4005 ft | 252 kts | 51° |
| 2026-05-07 14:38 | 53.42398 | 9.57491 | 4002 ft | 235 kts | 50° |
| 2026-05-07 14:39 | 53.43446 | 9.59435 | 3998 ft | 217 kts | 48° |
| 2026-05-07 14:39 | 53.44446 | 9.61347 | 4021 ft | 221 kts | 51° |
| 2026-05-07 14:39 | 53.45430 | 9.63348 | 4003 ft | 221 kts | 51° |
| 2026-05-07 14:39 | 53.46405 | 9.65306 | 4000 ft | 218 kts | 51° |
| 2026-05-07 14:40 | 53.47384 | 9.67269 | 4014 ft | 221 kts | 51° |
| 2026-05-07 14:40 | 53.48373 | 9.69251 | 4004 ft | 221 kts | 51° |
| 2026-05-07 14:40 | 53.49355 | 9.71227 | 3946 ft | 220 kts | 51° |
| 2026-05-07 14:40 | 53.50300 | 9.73138 | 3677 ft | 212 kts | 52° |
| 2026-05-07 14:41 | 53.51228 | 9.75019 | 3397 ft | 206 kts | 50° |
| 2026-05-07 14:41 | 53.52153 | 9.76836 | 3114 ft | 203 kts | 51° |
| 2026-05-07 14:41 | 53.53016 | 9.78626 | 2846 ft | 191 kts | 51° |
| 2026-05-07 14:41 | 53.53853 | 9.80281 | 2573 ft | 180 kts | 51° |
| 2026-05-07 14:42 | 53.54634 | 9.81832 | 2371 ft | 167 kts | 50° |
| 2026-05-07 14:42 | 53.55357 | 9.83276 | 2127 ft | 155 kts | 54° |
| 2026-05-07 14:42 | 53.55781 | 9.84193 | 1982 ft | 145 kts | 53° |
| 2026-05-07 14:42 | 53.56411 | 9.85445 | 1821 ft | 136 kts | 52° |
| 2026-05-07 14:43 | 53.57020 | 9.86662 | 1619 ft | 131 kts | 51° |
| 2026-05-07 14:43 | 53.57598 | 9.87831 | 1442 ft | 130 kts | 51° |
| 2026-05-07 14:43 | 53.58360 | 9.89387 | 1183 ft | 127 kts | 51° |
| 2026-05-07 14:43 | 53.58937 | 9.90536 | 1013 ft | 135 kts | 51° |
| 2026-05-07 14:44 | 53.59348 | 9.91361 | 881 ft | 140 kts | 52° |
| 2026-05-07 14:44 | 53.59950 | 9.92610 | 726 ft | 135 kts | 50° |
| 2026-05-07 14:44 | 53.60520 | 9.93764 | 528 ft | 122 kts | 50° |
| 2026-05-07 14:44 | 53.61102 | 9.94950 | 366 ft | 144 kts | 48° |
| 2026-05-07 14:45 | 53.61730 | 9.96199 | 121 ft | 137 kts | 48° |
| 2026-05-07 14:45 | 53.62334 | 9.97401 | 57 ft | 126 kts | 49° |
| 2026-05-07 14:45 | 53.62773 | 9.98290 | 54 ft | 69 kts | 49° |
| 2026-05-07 14:45 | 53.62954 | 9.98661 | 49 ft | 17 kts | 50° |
| 2026-05-07 14:46 | 53.63041 | 9.98842 | 49 ft | 24 kts | 54° |
| 2026-05-07 14:46 | 53.63088 | 9.99135 | 53 ft | 30 kts | 92° |
| 2026-05-07 14:46 | 53.63116 | 9.99445 | 51 ft | 8 kts | 58° |
| 2026-05-07 14:46 | 53.63181 | 9.99589 | 50 ft | 14 kts | 50° |
| 2026-05-07 14:47 | 53.63195 | 9.99619 | 50 ft | 6 kts | 51° |
| 2026-05-07 14:47 | 53.63210 | 9.99732 | 52 ft | 15 kts | 107° |
| 2026-05-07 14:47 | 53.63120 | 9.99849 | 52 ft | 18 kts | 152° |
| 2026-05-07 14:47 | 53.63006 | 9.99947 | 50 ft | 19 kts | 153° |
| 2026-05-07 14:48 | 53.62959 | 10.00100 | 53 ft | 10 kts | 64° |
| 2026-05-07 14:48 | 53.63009 | 10.00162 | 51 ft | 10 kts | 35° |
| 2026-05-07 14:48 | 53.63080 | 10.00233 | 50 ft | 12 kts | 37° |
| 2026-05-07 14:48 | 53.63103 | 10.00365 | 57 ft | 12 kts | 84° |